Pettus, Arkansas
Current Conditions -  °F | °C
As of 4:58 PM on Saturday 20 Dec 2014 (Local Time) from KLRF Reporting Station
Overcast Overcast  
Wind Chill: 44°   Ceiling: 5000
Heat Index: 46°   Visibility: 10mi
Dew Point: 38°   Wind: 5mph
Humidity: 72%   Direction: 50°NE
Pressure: 30.23"   Gusts: NA
Location:  34.7557°N, 91.9476°W
Report Text: KLRF 202258Z AUTO 05004KT 10SM OVC050 08/03 A3023 RMK AO2 SLP241 T00800033
Loading
Personal Weather Stations






























Interactive Weather Map New forecast layout! Learn more

10-Day Weather Forecast

Advertisements
Track Severe Weather on mobile